Time;durP1;ratioP1;P1;durP2;ratioP2;P2;SDS_P1;SDS_P2;PMS_P1;PMS_P2;Temp;Humidity;BMP_temperature;BMP_pressure;BME280_temperature;BME280_humidity;BME280_pressure;Samples;Min_cycle;Max_cycle;Signal;HPM_P1;HPM_P2
2022/10/03 00:00:38;;;;;;;596.37;208.03;;;10.40;1.00;;;;;;5072088;28;20241;-87
2022/10/03 00:03:29;;;;;;;664.67;403.67;;;10.40;1.00;;;;;;5072483;28;20249;-86
2022/10/03 00:06:14;;;;;;;589.00;154.23;;;10.40;1.00;;;;;;5072386;28;20254;-86
2022/10/03 00:09:13;;;;;;;585.47;154.50;;;10.40;1.00;;;;;;5074108;28;20184;-88
2022/10/03 00:11:56;;;;;;;583.63;166.40;;;10.40;99.90;;;;;;5075362;28;20203;-86
2022/10/03 00:14:34;;;;;;;622.53;280.77;;;10.50;18.30;;;;;;5075439;28;20183;-86
2022/10/03 00:17:05;;;;;;;603.47;188.57;;;10.50;99.90;;;;;;5075792;28;20199;-87
2022/10/03 00:19:45;;;;;;;597.13;204.07;;;10.60;1.00;;;;;;5075859;28;20176;-87
2022/10/03 00:22:26;;;;;;;626.23;280.60;;;10.50;1.00;;;;;;5075411;28;20188;-85
2022/10/03 00:25:07;;;;;;;625.57;283.10;;;10.50;99.90;;;;;;5075292;28;20645;-86
2022/10/03 00:27:39;;;;;;;653.93;366.97;;;10.60;1.00;;;;;;5075416;28;20591;-85
2022/10/03 00:30:17;;;;;;;571.77;135.53;;;10.60;99.90;;;;;;5075492;28;20190;-85
2022/10/03 00:33:02;;;;;;;586.73;165.70;;;10.70;99.90;;;;;;5074799;28;20231;-85
2022/10/03 00:35:54;;;;;;;579.53;148.97;;;10.70;99.90;;;;;;5075204;28;20249;-88
2022/10/03 00:38:50;;;;;;;582.47;149.33;;;10.80;99.90;;;;;;5075492;28;20185;-88
2022/10/03 00:41:34;;;;;;;581.10;155.40;;;10.80;1.00;;;;;;5058914;28;20601;-87
2022/10/03 00:44:26;;;;;;;587.77;150.63;;;10.80;1.00;;;;;;5075066;28;20190;-86
2022/10/03 00:47:19;;;;;;;578.37;153.70;;;10.80;1.00;;;;;;5073557;28;20256;-85
2022/10/03 00:50:23;;;;;;;588.97;161.37;;;10.80;1.00;;;;;;5054895;28;20703;-88
2022/10/03 00:53:23;;;;;;;587.33;168.47;;;10.70;99.90;;;;;;5054834;28;20696;-86
2022/10/03 00:56:02;;;;;;;591.40;161.67;;;10.70;1.00;;;;;;5050098;28;20196;-86
2022/10/03 00:58:43;;;;;;;587.13;161.40;;;10.70;1.00;;;;;;5065729;28;20525;-85
2022/10/03 01:01:36;;;;;;;587.00;161.90;;;10.80;99.90;;;;;;5075008;28;20190;-85
2022/10/03 01:04:30;;;;;;;590.77;166.77;;;10.80;54.20;;;;;;5074848;28;20604;-85
2022/10/03 01:07:09;;;;;;;590.50;161.03;;;10.80;98.40;;;;;;5075048;28;20190;-85
2022/10/03 01:09:52;;;;;;;589.97;159.17;;;10.80;99.90;;;;;;5074572;28;20213;-84
2022/10/03 01:12:48;;;;;;;592.83;157.37;;;10.80;1.00;;;;;;5074818;28;20252;-86
2022/10/03 01:15:28;;;;;;;591.03;158.37;;;10.90;1.00;;;;;;5068151;28;20197;-88
2022/10/03 01:18:13;;;;;;;591.30;167.73;;;10.90;1.00;;;;;;5074542;28;20231;-86
2022/10/03 01:20:52;;;;;;;592.43;182.13;;;10.90;1.00;;;;;;5074795;28;20185;-88
2022/10/03 01:23:49;;;;;;;608.07;223.23;;;10.90;1.00;;;;;;5074634;28;20202;-85
2022/10/03 01:26:30;;;;;;;620.17;244.40;;;11.00;1.00;;;;;;5074165;28;20597;-89
2022/10/03 01:31:51;;;;;;;585.93;178.40;;;11.00;1.00;;;;;;5074197;28;20321;-86
2022/10/03 01:34:27;;;;;;;584.90;165.90;;;11.00;99.90;;;;;;5073812;28;20221;-86
2022/10/03 01:37:10;;;;;;;582.87;149.57;;;11.10;1.00;;;;;;5074536;28;20227;-86
2022/10/03 01:39:42;;;;;;;592.23;169.93;;;11.10;99.90;;;;;;5074426;28;20238;-86
2022/10/03 01:42:17;;;;;;;616.30;175.73;;;11.10;1.00;;;;;;5074137;28;20599;-86
2022/10/03 01:45:09;;;;;;;596.67;165.20;;;11.10;99.90;;;;;;5073712;28;20182;-86
2022/10/03 01:47:48;;;;;;;613.13;257.60;;;11.10;1.00;;;;;;5074030;28;20192;-86
2022/10/03 01:50:24;;;;;;;589.10;169.07;;;11.10;1.00;;;;;;5073731;28;20552;-87
2022/10/03 01:52:58;;;;;;;594.20;193.40;;;11.10;99.90;;;;;;5073706;28;20210;-87
2022/10/03 01:55:35;;;;;;;653.83;384.40;;;11.10;1.00;;;;;;5073785;28;20184;-86
2022/10/03 01:58:08;;;;;;;583.47;165.10;;;11.10;1.00;;;;;;5073455;28;20239;-87
2022/10/03 02:00:45;;;;;;;589.60;172.83;;;11.10;1.00;;;;;;5073735;28;20182;-86
2022/10/03 02:03:20;;;;;;;581.63;161.73;;;11.10;1.00;;;;;;5073428;28;20184;-86
2022/10/03 02:05:54;;;;;;;588.03;165.17;;;11.10;1.00;;;;;;5073588;28;20600;-86
2022/10/03 02:08:35;;;;;;;599.60;213.03;;;11.10;1.00;;;;;;5073181;28;20180;-87
2022/10/03 02:11:06;;;;;;;592.93;171.50;;;11.10;99.90;;;;;;5073237;28;20553;-86
2022/10/03 02:13:46;;;;;;;590.50;170.40;;;11.10;99.90;;;;;;5073421;28;20208;-86
2022/10/03 02:16:23;;;;;;;653.57;351.00;;;11.10;99.90;;;;;;5073147;28;20184;-87
2022/10/03 02:18:55;;;;;;;583.27;149.47;;;11.10;99.90;;;;;;5072996;28;20243;-86
2022/10/03 02:21:25;;;;;;;588.30;150.50;;;11.10;99.90;;;;;;5073327;28;20245;-87
2022/10/03 02:24:17;;;;;;;590.93;167.23;;;11.10;99.90;;;;;;5073242;28;20194;-86
2022/10/03 02:27:13;;;;;;;586.73;211.80;;;11.10;99.90;;;;;;5073189;28;20180;-86
2022/10/03 02:30:05;;;;;;;582.47;153.60;;;11.10;99.90;;;;;;5072785;28;20183;-87
2022/10/03 02:33:14;;;;;;;573.87;169.53;;;11.10;1.00;;;;;;5064085;28;20223;-86
2022/10/03 02:36:05;;;;;;;583.90;168.30;;;11.10;1.00;;;;;;5073205;28;20184;-86
2022/10/03 02:39:04;;;;;;;604.00;162.00;;;11.20;99.90;;;;;;5073014;28;20368;-86
2022/10/03 02:41:58;;;;;;;586.60;156.93;;;11.20;99.90;;;;;;5072673;28;20222;-87
2022/10/03 02:44:50;;;;;;;579.90;155.67;;;11.20;99.90;;;;;;5073248;28;20186;-87
2022/10/03 02:47:56;;;;;;;581.13;158.57;;;11.20;99.90;;;;;;5072603;28;20230;-87
2022/10/03 02:50:57;;;;;;;575.67;163.80;;;11.30;1.00;;;;;;5072822;28;20237;-87
2022/10/03 02:53:56;;;;;;;584.17;203.80;;;11.30;1.00;;;;;;5072836;28;20218;-87
2022/10/03 02:57:02;;;;;;;608.03;254.27;;;11.30;99.90;;;;;;5072904;28;20180;-86
2022/10/03 03:00:03;;;;;;;586.47;169.17;;;11.30;10.00;;;;;;5072688;28;20231;-86
2022/10/03 03:03:01;;;;;;;577.60;160.53;;;11.40;1.00;;;;;;5072775;28;20547;-88
2022/10/03 03:05:45;;;;;;;597.40;213.57;;;11.30;1.00;;;;;;5072948;28;20200;-87
2022/10/03 03:08:38;;;;;;;595.57;214.67;;;11.40;1.00;;;;;;5072714;28;20184;-87
2022/10/03 03:11:27;;;;;;;629.03;310.50;;;11.40;1.00;;;;;;5063473;28;20720;-88
2022/10/03 03:14:20;;;;;;;633.00;215.67;;;11.40;99.90;;;;;;5072472;28;20211;-87
2022/10/03 03:16:58;;;;;;;593.13;146.63;;;11.40;99.90;;;;;;5072540;28;20203;-87
2022/10/03 03:19:46;;;;;;;605.53;164.87;;;11.40;25.70;;;;;;5072791;28;20190;-87
2022/10/03 03:22:31;;;;;;;583.40;162.00;;;11.40;1.00;;;;;;5072090;28;20569;-86
2022/10/03 03:25:30;;;;;;;584.43;158.03;;;11.40;1.00;;;;;;5072475;28;20181;-86
2022/10/03 03:28:11;;;;;;;577.53;158.93;;;11.40;1.00;;;;;;5064746;28;20606;-87
2022/10/03 03:30:44;;;;;;;583.53;165.17;;;11.30;1.00;;;;;;5071732;28;20185;-88
2022/10/03 03:33:22;;;;;;;589.57;208.03;;;11.30;1.00;;;;;;5071838;28;20222;-86
2022/10/03 03:36:00;;;;;;;594.10;212.87;;;11.30;1.00;;;;;;5072278;28;20211;-86
2022/10/03 03:38:32;;;;;;;667.13;419.77;;;11.30;1.00;;;;;;5052267;28;20250;-86
2022/10/03 03:41:24;;;;;;;592.83;217.77;;;11.30;1.00;;;;;;5052325;28;20521;-88
2022/10/03 03:44:12;;;;;;;581.63;157.00;;;11.30;1.00;;;;;;5061796;28;20575;-86
2022/10/03 03:46:59;;;;;;;607.80;227.07;;;11.30;1.00;;;;;;5076086;28;20188;-87
2022/10/03 03:49:40;;;;;;;579.53;161.67;;;11.30;1.00;;;;;;5076356;28;20237;-86
2022/10/03 03:52:29;;;;;;;651.63;360.87;;;11.30;1.00;;;;;;5076000;28;20180;-88
2022/10/03 03:55:18;;;;;;;589.00;130.60;;;11.30;99.90;;;;;;5076150;28;20306;-87
2022/10/03 03:58:13;;;;;;;594.50;248.33;;;11.30;99.90;;;;;;5076308;28;20242;-87
2022/10/03 04:00:56;;;;;;;620.07;264.23;;;11.30;99.90;;;;;;5069404;28;20194;-87
2022/10/03 04:03:42;;;;;;;608.47;171.30;;;11.30;58.40;;;;;;5075696;28;20190;-86
2022/10/03 04:06:35;;;;;;;594.90;180.77;;;11.30;81.70;;;;;;5075541;28;20199;-87
2022/10/03 04:09:24;;;;;;;600.60;201.70;;;11.30;99.90;;;;;;5075893;28;20219;-87
2022/10/03 04:11:59;;;;;;;603.33;225.47;;;11.30;99.90;;;;;;5075544;28;20649;-87
2022/10/03 04:15:08;;;;;;;603.90;207.13;;;11.30;99.90;;;;;;5075494;28;20769;-87
2022/10/03 04:20:56;;;;;;;596.33;181.80;;;11.30;99.90;;;;;;5075261;28;20189;-87
2022/10/03 04:23:57;;;;;;;592.80;183.57;;;11.30;99.90;;;;;;5075620;28;20200;-88
2022/10/03 04:26:50;;;;;;;594.57;186.73;;;11.30;99.90;;;;;;5075267;28;20186;-86
2022/10/03 04:29:39;;;;;;;599.10;194.03;;;11.30;99.90;;;;;;5074973;28;20188;-87
2022/10/03 04:32:18;;;;;;;601.60;212.13;;;11.30;99.90;;;;;;5074877;28;20667;-86
2022/10/03 04:34:56;;;;;;;622.00;276.63;;;11.40;99.90;;;;;;5075618;28;20207;-88
2022/10/03 04:37:32;;;;;;;622.20;233.87;;;11.30;99.90;;;;;;5075269;28;20198;-87
2022/10/03 04:40:21;;;;;;;551.93;173.43;;;11.40;99.90;;;;;;5075908;28;20209;-88
2022/10/03 04:43:04;;;;;;;548.50;196.93;;;11.40;99.90;;;;;;5073619;28;20185;-87
2022/10/03 04:45:48;;;;;;;589.40;162.00;;;11.40;99.90;;;;;;5055491;28;20202;-88
2022/10/03 04:48:22;;;;;;;590.20;166.27;;;11.40;1.00;;;;;;5063769;28;20591;-87
2022/10/03 04:51:00;;;;;;;589.57;168.00;;;11.40;1.00;;;;;;5075129;28;20194;-87
2022/10/03 04:53:41;;;;;;;586.70;159.83;;;11.40;1.00;;;;;;5074663;28;20661;-88
2022/10/03 04:56:42;;;;;;;590.70;162.47;;;11.40;1.00;;;;;;5075126;28;20428;-87
2022/10/03 04:59:36;;;;;;;586.67;161.30;;;11.40;1.00;;;;;;5074743;28;20206;-87
2022/10/03 05:02:11;;;;;;;583.83;162.37;;;11.40;1.00;;;;;;5070515;28;20592;-86
2022/10/03 05:04:52;;;;;;;585.17;166.83;;;11.40;1.00;;;;;;5073533;28;20268;-85
2022/10/03 05:07:29;;;;;;;584.47;168.87;;;11.40;1.00;;;;;;5074621;28;20675;-86
2022/10/03 05:10:02;;;;;;;586.33;168.53;;;11.40;1.00;;;;;;5074901;28;20608;-86
2022/10/03 05:12:39;;;;;;;588.03;169.57;;;11.40;1.00;;;;;;5074625;28;20189;-86
2022/10/03 05:15:21;;;;;;;585.73;168.37;;;11.40;1.00;;;;;;5074366;28;20200;-88
2022/10/03 05:17:58;;;;;;;590.83;185.93;;;11.40;1.00;;;;;;5075057;28;20322;-89
2022/10/03 05:20:35;;;;;;;584.80;174.30;;;11.40;1.00;;;;;;5074649;28;20636;-89
2022/10/03 05:23:15;;;;;;;587.10;185.37;;;11.40;1.00;;;;;;5074759;28;20240;-88
2022/10/03 05:25:56;;;;;;;595.70;210.23;;;11.40;1.00;;;;;;5074691;28;20240;-89
2022/10/03 05:28:37;;;;;;;658.47;376.77;;;11.50;1.00;;;;;;5074686;28;20195;-89
2022/10/03 05:31:22;;;;;;;616.47;251.07;;;11.50;1.00;;;;;;5074321;28;20183;-89
2022/10/03 05:33:54;;;;;;;607.37;226.20;;;11.50;1.00;;;;;;5074083;28;20230;-88
2022/10/03 05:36:49;;;;;;;594.20;158.57;;;11.50;1.00;;;;;;5079836;28;20183;-91
2022/10/03 05:42:52;;;;;;;581.27;156.87;;;11.50;1.00;;;;;;5096731;28;20255;-91
2022/10/03 05:45:39;;;;;;;586.80;159.47;;;11.50;1.00;;;;;;5082225;28;20206;-91
2022/10/03 05:52:35;;;;;;;;;;;;;;;;;;;;;
2022/10/03 05:55:57;;;;;;;610.03;184.83;;;11.40;1.00;;;;;;5073800;28;20222;-90
2022/10/03 05:59:03;;;;;;;607.00;192.53;;;11.40;99.90;;;;;;5074442;28;20214;-93
2022/10/03 06:02:06;;;;;;;643.23;220.43;;;11.30;1.00;;;;;;5074635;28;20184;-93
2022/10/03 06:05:31;;;;;;;616.97;231.33;;;11.30;1.00;;;;;;5069943;28;20202;-92
2022/10/03 06:15:09;;;;;;;;;;;;;;;;;;;;;
2022/10/03 06:21:48;;;;;;;426.00;179.30;;;11.50;1.10;;;;;;5044790;28;20391;-89
2022/10/03 06:28:42;;;;;;;590.20;169.03;;;11.60;99.90;;;;;;5011718;28;20585;-88
2022/10/03 06:31:51;;;;;;;594.53;176.73;;;11.60;99.90;;;;;;5072866;28;20177;-88
2022/10/03 06:35:15;;;;;;;600.80;192.67;;;11.60;46.80;;;;;;5071732;28;20217;-88
2022/10/03 06:38:17;;;;;;;611.57;233.60;;;11.70;1.00;;;;;;4977346;28;20711;-87
2022/10/03 06:41:19;;;;;;;652.53;346.93;;;11.70;1.00;;;;;;5072961;28;20196;-88
2022/10/03 06:44:03;;;;;;;;;;;11.70;99.90;;;;;;5073418;28;20646;-88
2022/10/03 06:46:52;;;;;;;622.40;259.13;;;11.70;1.00;;;;;;5069140;28;20646;-88
2022/10/03 06:49:59;;;;;;;593.03;154.70;;;11.70;99.90;;;;;;5072657;28;20232;-88
2022/10/03 06:52:33;;;;;;;;;;;11.70;79.20;;;;;;5068214;28;20201;-88
2022/10/03 06:55:46;;;;;;;608.00;175.63;;;11.80;99.90;;;;;;5072547;28;20449;-88
2022/10/03 06:58:52;;;;;;;606.83;208.57;;;11.90;25.40;;;;;;5072560;28;20284;-88
2022/10/03 07:01:49;;;;;;;617.77;217.93;;;12.00;99.90;;;;;;5072544;28;20176;-88
2022/10/03 07:04:57;;;;;;;649.83;352.20;;;12.00;99.90;;;;;;5072688;28;20231;-88
2022/10/03 07:08:13;;;;;;;600.30;176.50;;;12.00;1.00;;;;;;5072586;28;20190;-88
2022/10/03 07:10:55;;;;;;;641.47;316.47;;;12.00;99.90;;;;;;5060140;28;20205;-88
2022/10/03 07:13:49;;;;;;;607.17;216.90;;;12.10;1.00;;;;;;5072549;28;20634;-88
2022/10/03 07:16:49;;;;;;;604.40;203.67;;;12.20;1.00;;;;;;5072336;28;20213;-88
2022/10/03 07:19:48;;;;;;;654.27;347.13;;;12.30;1.00;;;;;;5072447;28;20224;-88
2022/10/03 07:22:47;;;;;;;613.50;211.17;;;12.40;1.00;;;;;;5072594;28;20533;-88
2022/10/03 07:25:38;;;;;;;643.40;300.57;;;12.60;99.90;;;;;;5072540;28;20214;-88
2022/10/03 07:28:27;;;;;;;660.33;355.07;;;12.80;1.00;;;;;;5064187;28;20253;-89
2022/10/03 07:31:08;;;;;;;636.27;280.73;;;12.90;99.90;;;;;;5072356;28;20181;-88
2022/10/03 07:34:26;;;;;;;561.63;183.20;;;13.00;1.00;;;;;;5072661;28;20183;-88
2022/10/03 07:40:10;;;;;;;;;;;13.80;1.00;;;;;;5072869;28;19923;-88
2022/10/03 07:42:47;;;;;;;;;;;15.10;29.60;;;;;;5067220;28;20362;-89
2022/10/03 07:45:40;;;;;;;627.50;304.63;;;16.30;1.00;;;;;;5072419;28;20393;-89
2022/10/03 07:48:23;;;;;;;;;;;17.30;1.00;;;;;;5072571;28;19925;-89
2022/10/03 07:51:08;;;;;;;;;;;18.20;1.00;;;;;;5072878;28;19925;-89
2022/10/03 07:53:47;;;;;;;;;;;18.80;1.00;;;;;;5072897;28;19925;-90
2022/10/03 07:56:32;;;;;;;;;;;18.70;99.90;;;;;;5073022;28;19962;-91
2022/10/03 07:59:19;;;;;;;;;;;18.50;67.80;;;;;;5072901;28;19925;-93
2022/10/03 08:01:57;;;;;;;;;;;18.60;1.00;;;;;;5073599;28;19975;-90
2022/10/03 08:07:44;;;;;;;;;;;18.10;1.00;;;;;;5072783;28;19974;-93
2022/10/03 08:10:28;;;;;;;;;;;17.60;1.00;;;;;;5073287;28;20295;-92
2022/10/03 08:13:17;;;;;;;;;;;17.30;1.00;;;;;;5073950;28;19946;-92
2022/10/03 08:15:56;;;;;;;;;;;17.10;1.00;;;;;;5073517;28;19924;-92
2022/10/03 08:18:46;;;;;;;;;;;17.10;1.00;;;;;;5076203;28;19925;-93
2022/10/03 08:21:28;;;;;;;;;;;16.80;1.00;;;;;;5074116;28;19925;-91
2022/10/03 08:24:33;;;;;;;;;;;16.80;1.00;;;;;;5073750;28;19924;-94
2022/10/03 08:27:14;;;;;;;;;;;16.60;1.00;;;;;;5070691;28;19931;-92
2022/10/03 08:30:00;;;;;;;;;;;16.50;1.00;;;;;;5072185;28;20020;-93
2022/10/03 08:32:44;;;;;;;;;;;16.30;1.00;;;;;;5074721;28;19929;-93
2022/10/03 08:35:43;;;;;;;;;;;16.20;1.00;;;;;;5074997;28;20390;-94
2022/10/03 08:38:35;;;;;;;;;;;16.00;1.00;;;;;;5075549;28;19968;-93
2022/10/03 08:41:44;;;;;;;664.43;300.33;;;15.80;1.00;;;;;;5074801;28;20048;-93
2022/10/03 08:44:50;;;;;;;652.93;284.33;;;15.70;1.00;;;;;;5074245;28;20248;-92
2022/10/03 08:48:08;;;;;;;638.37;267.37;;;15.60;1.00;;;;;;5076501;28;20694;-91
2022/10/03 08:54:29;;;;;;;615.07;243.40;;;15.40;1.00;;;;;;5074876;28;20227;-94
2022/10/03 08:57:22;;;;;;;616.83;248.70;;;15.30;1.00;;;;;;5075928;28;20199;-92
2022/10/03 09:00:43;;;;;;;620.50;247.33;;;15.40;1.00;;;;;;5075356;28;20252;-92
2022/10/03 09:03:59;;;;;;;616.87;256.67;;;16.20;13.40;;;;;;5056873;28;20276;-93
2022/10/03 09:07:13;;;;;;;621.80;259.97;;;17.00;1.00;;;;;;5071773;28;20220;-93
2022/10/03 09:10:21;;;;;;;625.77;272.40;;;17.60;1.00;;;;;;5073261;28;20246;-91
2022/10/03 09:13:15;;;;;;;629.97;294.23;;;17.60;1.00;;;;;;5064015;28;20208;-90
2022/10/03 09:16:17;;;;;;;627.33;295.60;;;17.20;1.00;;;;;;5073141;28;20257;-90
2022/10/03 09:20:04;;;;;;;628.27;294.97;;;16.90;1.00;;;;;;5089284;28;20202;-92
2022/10/03 09:23:28;;;;;;;629.90;309.90;;;16.70;1.00;;;;;;5090107;28;20205;-92
2022/10/03 09:36:26;;;;;;;650.70;375.10;;;16.50;1.00;;;;;;5072189;28;20192;-90
2022/10/03 09:39:18;;;;;;;642.20;351.60;;;17.30;1.00;;;;;;5074795;28;20593;-89
2022/10/03 09:42:26;;;;;;;635.27;311.63;;;17.50;1.00;;;;;;5074353;28;20218;-89
2022/10/03 09:45:15;;;;;;;634.60;309.87;;;17.50;1.00;;;;;;5074332;28;20242;-90
2022/10/03 09:48:14;;;;;;;644.40;344.30;;;17.10;1.00;;;;;;5074555;28;20234;-90
2022/10/03 09:51:22;;;;;;;730.93;544.83;;;16.80;1.00;;;;;;5074412;28;20226;-89
2022/10/03 09:54:27;;;;;;;679.37;443.73;;;16.60;1.00;;;;;;5068738;28;20213;-90
2022/10/03 09:57:37;;;;;;;662.23;309.97;;;16.50;1.00;;;;;;5074516;28;20226;-90
2022/10/03 10:00:19;;;;;;;665.27;312.63;;;16.60;1.00;;;;;;5074456;28;20565;-90
2022/10/03 10:06:36;;;;;;;642.33;277.60;;;16.50;1.00;;;;;;5016819;28;20220;-90
2022/10/03 10:09:46;;;;;;;659.30;291.33;;;16.50;1.00;;;;;;5050307;28;20200;-89
2022/10/03 10:12:44;;;;;;;645.17;285.60;;;16.40;1.00;;;;;;5074083;28;20520;-89
2022/10/03 10:15:40;;;;;;;629.50;274.37;;;16.60;1.00;;;;;;5073824;28;20696;-90
2022/10/03 10:18:59;;;;;;;638.83;287.30;;;16.90;1.00;;;;;;5081715;28;20211;-95
2022/10/03 10:29:00;;;;;;;644.63;340.33;;;16.50;1.00;;;;;;5021956;28;20207;-89
2022/10/03 10:32:01;;;;;;;674.23;417.97;;;16.50;1.00;;;;;;5071407;28;20205;-91
2022/10/03 10:35:14;;;;;;;698.10;474.93;;;16.40;1.00;;;;;;5073513;28;20552;-89
2022/10/03 10:38:14;;;;;;;703.20;488.37;;;16.50;1.00;;;;;;5073722;28;20279;-89
2022/10/03 10:41:17;;;;;;;577.23;217.60;;;16.70;1.00;;;;;;5073852;28;20632;-90
2022/10/03 10:44:28;;;;;;;667.33;352.20;;;16.80;1.00;;;;;;5073710;28;20593;-89
2022/10/03 10:47:47;;;;;;;779.13;404.97;;;17.00;1.00;;;;;;5011952;28;20199;-91
2022/10/03 10:50:38;;;;;;;680.87;332.83;;;17.10;1.00;;;;;;4970478;28;20233;-89
2022/10/03 10:53:54;;;;;;;668.87;319.90;;;17.20;1.00;;;;;;5070141;28;20200;-89
2022/10/03 10:57:01;;;;;;;662.37;317.50;;;17.50;1.00;;;;;;5073230;28;20246;-90
2022/10/03 11:00:15;;;;;;;663.40;309.53;;;17.70;1.00;;;;;;5073487;28;20252;-90
2022/10/03 11:03:32;;;;;;;654.93;313.07;;;17.70;1.00;;;;;;5063961;28;20231;-89
2022/10/03 11:06:52;;;;;;;654.17;311.40;;;17.70;1.00;;;;;;5073276;28;20196;-90
2022/10/03 11:09:46;;;;;;;655.70;318.87;;;17.70;1.00;;;;;;5011864;28;20253;-90
2022/10/03 11:12:57;;;;;;;653.97;309.87;;;17.50;1.00;;;;;;5071276;28;20196;-91
2022/10/03 11:16:02;;;;;;;654.57;306.87;;;17.50;1.00;;;;;;5073541;28;20187;-90
2022/10/03 11:19:06;;;;;;;645.43;299.27;;;17.40;1.00;;;;;;5064759;28;20235;-89
2022/10/03 11:22:12;;;;;;;645.93;300.40;;;17.30;1.00;;;;;;5072924;28;20636;-90
2022/10/03 11:25:20;;;;;;;645.17;296.70;;;17.50;1.00;;;;;;5073142;28;20595;-90
2022/10/03 11:28:33;;;;;;;638.17;294.57;;;17.60;1.00;;;;;;5072782;28;20188;-90
2022/10/03 11:31:40;;;;;;;643.37;301.47;;;17.50;1.00;;;;;;5072856;28;20250;-90
2022/10/03 11:34:44;;;;;;;631.43;286.83;;;17.40;1.00;;;;;;5072828;28;20268;-90
2022/10/03 11:37:32;;;;;;;631.10;290.73;;;17.40;1.00;;;;;;5072991;28;20196;-90
2022/10/03 11:40:23;;;;;;;626.63;286.13;;;17.40;1.00;;;;;;5073194;28;20619;-90
2022/10/03 11:42:58;;;;;;;630.93;286.97;;;17.40;1.00;;;;;;5073121;28;20242;-90
2022/10/03 11:45:31;;;;;;;627.53;292.87;;;17.50;1.00;;;;;;5072973;28;20214;-91
2022/10/03 11:48:22;;;;;;;625.00;290.53;;;17.70;1.00;;;;;;5073415;28;20196;-91
2022/10/03 11:50:53;;;;;;;625.67;291.40;;;17.90;1.00;;;;;;5073039;28;20196;-90
2022/10/03 11:53:41;;;;;;;627.03;295.93;;;18.10;1.00;;;;;;5073037;28;20550;-90
2022/10/03 11:56:33;;;;;;;620.30;293.73;;;18.10;1.00;;;;;;5072714;28;20185;-90
2022/10/03 11:59:17;;;;;;;624.20;302.23;;;17.90;1.00;;;;;;5073198;28;20188;-91
2022/10/03 12:02:01;;;;;;;622.67;303.00;;;17.80;1.00;;;;;;5072796;28;20299;-91
2022/10/03 12:04:36;;;;;;;626.20;318.43;;;17.80;1.00;;;;;;5075306;28;20199;-89
2022/10/03 12:10:03;;;;;;;646.83;389.87;;;17.90;1.00;;;;;;5076531;28;20179;-90
2022/10/03 12:12:41;;;;;;;735.80;561.40;;;17.80;1.00;;;;;;5076888;28;20178;-90
2022/10/03 12:15:33;;;;;;;707.70;527.10;;;17.80;1.00;;;;;;5076520;28;20205;-91
2022/10/03 12:18:32;;;;;;;610.53;280.63;;;17.80;1.00;;;;;;5095810;28;20747;-96
2022/10/03 12:21:38;;;;;;;652.40;319.17;;;17.80;1.00;;;;;;5077999;28;20223;-91
2022/10/03 12:24:40;;;;;;;641.53;310.00;;;17.90;1.00;;;;;;5093253;28;20720;-92
2022/10/03 12:27:23;;;;;;;645.70;312.67;;;17.90;1.00;;;;;;5093922;28;20208;-95
2022/10/03 12:30:07;;;;;;;638.80;309.40;;;17.90;1.00;;;;;;5093990;28;20196;-92
2022/10/03 12:32:51;;;;;;;635.93;307.13;;;17.90;1.00;;;;;;5093446;28;20259;-93
2022/10/03 12:35:44;;;;;;;637.90;308.60;;;17.80;1.00;;;;;;5091922;28;20271;-93
2022/10/03 12:38:50;;;;;;;634.90;301.23;;;17.70;1.00;;;;;;5092032;28;20238;-94
2022/10/03 12:41:35;;;;;;;632.80;299.50;;;17.70;1.00;;;;;;5092482;28;20196;-94
2022/10/03 12:44:36;;;;;;;635.47;303.50;;;17.70;1.00;;;;;;5095289;28;20193;-96
2022/10/03 12:50:55;;;;;;;633.03;304.37;;;17.60;1.00;;;;;;5054016;28;20205;-91
2022/10/03 12:53:58;;;;;;;629.83;310.57;;;17.50;1.00;;;;;;5054997;28;20182;-93
2022/10/03 12:56:42;;;;;;;634.13;298.00;;;17.30;1.00;;;;;;5094829;28;20203;-92
2022/10/03 13:00:00;;;;;;;636.93;294.60;;;17.20;1.00;;;;;;5096470;28;20208;-94
2022/10/03 13:02:44;;;;;;;631.87;294.30;;;17.10;1.00;;;;;;5095650;28;20248;-94
2022/10/03 13:05:42;;;;;;;708.30;538.30;;;17.00;1.00;;;;;;5095948;28;20204;-95
2022/10/03 13:11:45;;;;;;;663.70;315.90;;;16.80;1.00;;;;;;5095056;28;20195;-96
2022/10/03 13:14:42;;;;;;;667.53;323.00;;;16.70;1.00;;;;;;5094866;28;20208;-94
2022/10/03 13:17:50;;;;;;;676.00;318.87;;;16.70;1.00;;;;;;5094795;28;20188;-92
2022/10/03 13:20:39;;;;;;;662.53;316.20;;;16.60;1.00;;;;;;5095345;28;20200;-93
2022/10/03 13:23:46;;;;;;;650.00;300.43;;;16.60;1.00;;;;;;5094964;28;20193;-95
2022/10/03 13:29:41;;;;;;;631.67;274.50;;;16.50;1.00;;;;;;5097650;28;20196;-94
2022/10/03 13:32:31;;;;;;;634.40;271.50;;;16.40;1.00;;;;;;5096832;28;20228;-94
2022/10/03 13:38:22;;;;;;;626.57;267.90;;;16.20;1.00;;;;;;5074096;28;20253;-88
2022/10/03 13:41:11;;;;;;;619.83;261.67;;;16.50;1.00;;;;;;5075932;28;20185;-91
2022/10/03 13:44:09;;;;;;;621.53;263.27;;;16.60;1.00;;;;;;5097039;28;20180;-94
2022/10/03 13:53:23;;;;;;;616.53;253.57;;;16.80;1.00;;;;;;5089989;28;20209;-94
2022/10/03 13:59:08;;;;;;;617.83;263.13;;;16.60;1.00;;;;;;5097346;28;20187;-90
2022/10/03 14:02:13;;;;;;;620.50;266.90;;;16.60;1.00;;;;;;5097052;28;20195;-92
2022/10/03 14:05:34;;;;;;;628.03;264.30;;;16.50;1.00;;;;;;5096836;28;20203;-93
2022/10/03 14:11:43;;;;;;;622.17;260.27;;;16.40;1.00;;;;;;5095730;28;20180;-92
2022/10/03 14:14:57;;;;;;;628.13;268.07;;;16.30;1.00;;;;;;5097189;28;20215;-92
2022/10/03 14:17:40;;;;;;;639.13;280.50;;;16.20;1.00;;;;;;5096353;28;20582;-90
2022/10/03 14:20:30;;;;;;;624.93;270.80;;;16.20;1.00;;;;;;5097155;28;20186;-92
2022/10/03 14:23:25;;;;;;;627.07;298.30;;;16.20;1.00;;;;;;5096652;28;20202;-95
2022/10/03 14:26:38;;;;;;;620.70;273.67;;;16.10;1.00;;;;;;5096272;28;20211;-92
2022/10/03 14:29:27;;;;;;;621.40;261.53;;;16.00;1.00;;;;;;5095409;28;20198;-92
2022/10/03 14:32:16;;;;;;;627.80;278.33;;;15.90;1.00;;;;;;5096266;28;20227;-92
2022/10/03 14:37:58;;;;;;;618.33;270.00;;;15.80;1.00;;;;;;5096665;28;20249;-91
2022/10/03 14:41:13;;;;;;;616.03;269.97;;;15.80;1.00;;;;;;5096988;28;20507;-91
2022/10/03 14:43:59;;;;;;;624.70;275.37;;;15.70;1.00;;;;;;5096833;28;20237;-92
2022/10/03 14:47:01;;;;;;;617.43;270.13;;;15.70;1.00;;;;;;5096981;28;20201;-92
2022/10/03 14:49:41;;;;;;;614.50;259.17;;;15.60;1.00;;;;;;5097083;28;20203;-91
2022/10/03 14:56:00;;;;;;;614.27;260.03;;;15.50;1.00;;;;;;5097254;28;20213;-92
2022/10/03 14:58:58;;;;;;;614.70;265.10;;;15.50;1.00;;;;;;5096022;28;20267;-92
2022/10/03 15:01:55;;;;;;;617.90;261.90;;;15.40;1.00;;;;;;5096467;28;20188;-92
2022/10/03 15:04:53;;;;;;;619.93;267.40;;;15.40;1.00;;;;;;5096492;28;20204;-91
2022/10/03 15:07:53;;;;;;;624.37;274.10;;;15.40;1.00;;;;;;5096491;28;20208;-92
2022/10/03 15:10:37;;;;;;;618.60;280.47;;;15.40;1.00;;;;;;5095639;28;20196;-92
2022/10/03 15:16:05;;;;;;;639.10;342.73;;;15.30;1.00;;;;;;5091560;28;20203;-90
2022/10/03 15:22:13;;;;;;;738.97;554.70;;;15.30;1.00;;;;;;5096328;28;20186;-93
2022/10/03 15:25:08;;;;;;;698.10;521.10;;;15.30;1.00;;;;;;5096739;28;20207;-93
2022/10/03 15:31:12;;;;;;;588.23;275.07;;;15.20;1.00;;;;;;5088831;28;20210;-92
2022/10/03 15:33:59;;;;;;;623.13;237.70;;;15.10;1.00;;;;;;5094759;28;20216;-94
2022/10/03 15:36:39;;;;;;;;;;;15.00;1.00;;;;;;5094168;28;20115;-92
2022/10/03 15:39:36;;;;;;;624.70;244.80;;;15.00;1.00;;;;;;5098830;28;20173;-93
2022/10/03 15:42:27;;;;;;;835.30;428.30;;;14.90;1.00;;;;;;5083353;28;20216;-93
2022/10/03 15:45:16;;;;;;;644.17;250.10;;;14.70;1.00;;;;;;5079638;28;20253;-90
2022/10/03 15:51:18;;;;;;;634.03;240.60;;;14.40;1.00;;;;;;5076610;28;20205;-92
2022/10/03 15:54:07;;;;;;;627.03;234.00;;;14.30;1.00;;;;;;5080305;28;20198;-92
2022/10/03 15:56:48;;;;;;;622.27;228.93;;;14.20;1.00;;;;;;5079297;28;20261;-91
2022/10/03 15:59:47;;;;;;;622.30;230.63;;;14.10;1.00;;;;;;5062733;28;20207;-92
2022/10/03 16:02:19;;;;;;;616.90;218.93;;;14.00;1.00;;;;;;5056427;28;20208;-88
2022/10/03 16:04:55;;;;;;;625.70;224.10;;;13.80;1.00;;;;;;5056022;28;20184;-87
2022/10/03 16:07:47;;;;;;;624.10;220.10;;;13.70;1.00;;;;;;5056008;28;20258;-90
2022/10/03 16:10:38;;;;;;;634.77;227.17;;;13.60;1.00;;;;;;5060256;28;20211;-90
2022/10/03 16:13:28;;;;;;;637.40;226.17;;;13.50;1.00;;;;;;5041317;28;20200;-94